KONP

Newport Municipal Airport

Newport, Oregon, USA
KONP 220251Z 2203/2224 19008KT P6SM -SHRA SCT015 OVC025 FM220600 21012G18KT 5SM -SHRA SCT015 OVC025 FM220900 22010G18KT 4SM -SHRA BR SCT008 OVC015 FM221500 22010KT P6SM -SHRA BKN015 BKN022 BKN040 FM222000 25008KT P6SM -SHRA SCT015 BKN025 BKN040
Issued Valid From Valid To
Sep-22 @ 02:51 UTC
(35 minutes ago)
Sep-22 @ 03:00 UTC
(26 minutes ago)
Sep-23 @ 00:00 UTC
(in 21 hours)
to
to
to
to
to
KONP 220251Z 2203/2224 19008KT P6SM -SHRA SCT015 OVC025 FM220600 21012G18KT 5SM -SHRA SCT015 OVC025 FM220900 22010G18KT 4SM -SHRA BR SCT008 OVC015 FM221500 22010KT P6SM -SHRA BKN015 BKN022 BKN040 FM222000 25008KT P6SM -SHRA SCT015 BKN025 BKN040
Issued Sep-22 @ 02:51 UTC
(35 minutes ago)
Valid From Sep-22 @ 03:00 UTC
(26 minutes ago)
Valid To Sep-23 @ 00:00 UTC
(in 21 hours)
-
-
-
-
-